sensor_id;sensor_type;location;lat;lon;timestamp;P1;durP1;ratioP1;P2;durP2;ratioP2
8654;SDS011;13500;52.514;13.462;2023-12-20T00:01:20;11.10;;;8.13;;
8654;SDS011;13500;52.514;13.462;2023-12-20T00:03:49;12.27;;;8.67;;
8654;SDS011;13500;52.514;13.462;2023-12-20T00:06:18;10.33;;;8.73;;
8654;SDS011;13500;52.514;13.462;2023-12-20T00:08:47;9.07;;;7.70;;
8654;SDS011;13500;52.514;13.462;2023-12-20T00:11:16;9.23;;;8.07;;
8654;SDS011;13500;52.514;13.462;2023-12-20T00:13:44;9.90;;;8.63;;
8654;SDS011;13500;52.514;13.462;2023-12-20T00:16:19;10.17;;;8.77;;
8654;SDS011;13500;52.514;13.462;2023-12-20T00:18:47;12.23;;;9.40;;
8654;SDS011;13500;52.514;13.462;2023-12-20T00:21:15;11.03;;;8.13;;
8654;SDS011;13500;52.514;13.462;2023-12-20T00:23:43;9.93;;;8.63;;
8654;SDS011;13500;52.514;13.462;2023-12-20T00:26:12;10.70;;;8.43;;
8654;SDS011;13500;52.514;13.462;2023-12-20T00:28:40;10.27;;;8.67;;
8654;SDS011;13500;52.514;13.462;2023-12-20T00:31:09;12.30;;;9.00;;
8654;SDS011;13500;52.514;13.462;2023-12-20T00:33:41;9.87;;;8.53;;
8654;SDS011;13500;52.514;13.462;2023-12-20T00:36:11;11.50;;;8.33;;
8654;SDS011;13500;52.514;13.462;2023-12-20T00:38:39;12.67;;;9.37;;
8654;SDS011;13500;52.514;13.462;2023-12-20T00:41:07;10.90;;;8.80;;
8654;SDS011;13500;52.514;13.462;2023-12-20T00:43:35;11.20;;;9.47;;
8654;SDS011;13500;52.514;13.462;2023-12-20T00:46:04;10.83;;;8.53;;
8654;SDS011;13500;52.514;13.462;2023-12-20T00:48:32;10.63;;;8.80;;
8654;SDS011;13500;52.514;13.462;2023-12-20T00:51:02;9.57;;;7.60;;
8654;SDS011;13500;52.514;13.462;2023-12-20T00:53:32;10.67;;;8.27;;
8654;SDS011;13500;52.514;13.462;2023-12-20T00:56:00;9.00;;;7.97;;
8654;SDS011;13500;52.514;13.462;2023-12-20T00:58:28;10.00;;;8.03;;
8654;SDS011;13500;52.514;13.462;2023-12-20T01:00:57;9.00;;;7.23;;
8654;SDS011;13500;52.514;13.462;2023-12-20T01:03:26;9.87;;;7.40;;
8654;SDS011;13500;52.514;13.462;2023-12-20T01:05:54;9.23;;;7.77;;
8654;SDS011;13500;52.514;13.462;2023-12-20T01:08:24;9.40;;;7.93;;
8654;SDS011;13500;52.514;13.462;2023-12-20T01:10:52;10.07;;;8.30;;
8654;SDS011;13500;52.514;13.462;2023-12-20T01:13:22;9.20;;;7.87;;
8654;SDS011;13500;52.514;13.462;2023-12-20T01:15:50;9.13;;;8.00;;
8654;SDS011;13500;52.514;13.462;2023-12-20T01:18:19;8.30;;;7.10;;
8654;SDS011;13500;52.514;13.462;2023-12-20T01:20:47;9.73;;;8.23;;
8654;SDS011;13500;52.514;13.462;2023-12-20T01:23:15;9.70;;;8.27;;
8654;SDS011;13500;52.514;13.462;2023-12-20T01:25:45;10.83;;;8.60;;
8654;SDS011;13500;52.514;13.462;2023-12-20T01:28:13;9.90;;;8.23;;
8654;SDS011;13500;52.514;13.462;2023-12-20T01:30:42;10.53;;;8.50;;
8654;SDS011;13500;52.514;13.462;2023-12-20T01:33:10;11.67;;;9.07;;
8654;SDS011;13500;52.514;13.462;2023-12-20T01:35:38;9.70;;;7.90;;
8654;SDS011;13500;52.514;13.462;2023-12-20T01:38:07;10.00;;;8.30;;
8654;SDS011;13500;52.514;13.462;2023-12-20T01:40:36;10.93;;;8.57;;
8654;SDS011;13500;52.514;13.462;2023-12-20T01:43:07;9.60;;;8.37;;
8654;SDS011;13500;52.514;13.462;2023-12-20T01:45:36;9.00;;;7.40;;
8654;SDS011;13500;52.514;13.462;2023-12-20T01:48:05;8.17;;;6.90;;
8654;SDS011;13500;52.514;13.462;2023-12-20T01:50:36;9.17;;;7.63;;
8654;SDS011;13500;52.514;13.462;2023-12-20T01:53:18;8.50;;;7.03;;
8654;SDS011;13500;52.514;13.462;2023-12-20T01:55:47;8.83;;;7.27;;
8654;SDS011;13500;52.514;13.462;2023-12-20T01:58:17;9.37;;;7.50;;
8654;SDS011;13500;52.514;13.462;2023-12-20T02:00:46;10.30;;;7.23;;
8654;SDS011;13500;52.514;13.462;2023-12-20T02:03:16;8.27;;;6.47;;
8654;SDS011;13500;52.514;13.462;2023-12-20T02:05:46;8.43;;;6.83;;
8654;SDS011;13500;52.514;13.462;2023-12-20T02:08:15;8.30;;;6.50;;
8654;SDS011;13500;52.514;13.462;2023-12-20T02:10:43;9.87;;;5.97;;
8654;SDS011;13500;52.514;13.462;2023-12-20T02:13:14;7.10;;;6.03;;
8654;SDS011;13500;52.514;13.462;2023-12-20T02:15:45;6.10;;;5.33;;
8654;SDS011;13500;52.514;13.462;2023-12-20T02:18:13;6.37;;;4.47;;
8654;SDS011;13500;52.514;13.462;2023-12-20T02:20:43;6.67;;;4.20;;
8654;SDS011;13500;52.514;13.462;2023-12-20T02:23:16;6.03;;;3.00;;
8654;SDS011;13500;52.514;13.462;2023-12-20T02:25:44;5.47;;;2.93;;
8654;SDS011;13500;52.514;13.462;2023-12-20T02:28:13;4.50;;;2.63;;
8654;SDS011;13500;52.514;13.462;2023-12-20T02:30:41;5.17;;;2.10;;
8654;SDS011;13500;52.514;13.462;2023-12-20T02:33:10;3.67;;;2.30;;
8654;SDS011;13500;52.514;13.462;2023-12-20T02:35:40;5.43;;;2.50;;
8654;SDS011;13500;52.514;13.462;2023-12-20T02:38:08;4.57;;;2.70;;
8654;SDS011;13500;52.514;13.462;2023-12-20T02:40:38;4.73;;;2.87;;
8654;SDS011;13500;52.514;13.462;2023-12-20T02:43:15;7.33;;;3.60;;
8654;SDS011;13500;52.514;13.462;2023-12-20T02:45:43;4.97;;;3.90;;
8654;SDS011;13500;52.514;13.462;2023-12-20T02:48:15;5.23;;;4.10;;
8654;SDS011;13500;52.514;13.462;2023-12-20T02:50:43;5.20;;;4.43;;
8654;SDS011;13500;52.514;13.462;2023-12-20T02:53:12;7.27;;;5.13;;
8654;SDS011;13500;52.514;13.462;2023-12-20T02:55:43;6.13;;;5.53;;
8654;SDS011;13500;52.514;13.462;2023-12-20T02:58:11;7.13;;;4.97;;
8654;SDS011;13500;52.514;13.462;2023-12-20T03:00:41;6.70;;;5.70;;
8654;SDS011;13500;52.514;13.462;2023-12-20T03:03:10;8.20;;;5.77;;
8654;SDS011;13500;52.514;13.462;2023-12-20T03:05:39;8.37;;;6.47;;
8654;SDS011;13500;52.514;13.462;2023-12-20T03:08:08;10.93;;;7.13;;
8654;SDS011;13500;52.514;13.462;2023-12-20T03:10:38;8.17;;;6.50;;
8654;SDS011;13500;52.514;13.462;2023-12-20T03:13:14;11.20;;;5.80;;
8654;SDS011;13500;52.514;13.462;2023-12-20T03:15:43;11.30;;;6.17;;
8654;SDS011;13500;52.514;13.462;2023-12-20T03:18:12;10.43;;;5.80;;
8654;SDS011;13500;52.514;13.462;2023-12-20T03:20:42;11.60;;;6.07;;
8654;SDS011;13500;52.514;13.462;2023-12-20T03:23:10;13.73;;;5.93;;
8654;SDS011;13500;52.514;13.462;2023-12-20T03:25:40;9.37;;;4.77;;
8654;SDS011;13500;52.514;13.462;2023-12-20T03:28:10;12.67;;;5.23;;
8654;SDS011;13500;52.514;13.462;2023-12-20T03:30:44;12.10;;;5.57;;
8654;SDS011;13500;52.514;13.462;2023-12-20T03:33:12;8.40;;;4.40;;
8654;SDS011;13500;52.514;13.462;2023-12-20T03:35:42;11.03;;;4.73;;
8654;SDS011;13500;52.514;13.462;2023-12-20T03:38:13;8.63;;;4.30;;
8654;SDS011;13500;52.514;13.462;2023-12-20T03:40:43;8.80;;;3.97;;
8654;SDS011;13500;52.514;13.462;2023-12-20T03:43:11;7.77;;;3.60;;
8654;SDS011;13500;52.514;13.462;2023-12-20T03:45:42;6.80;;;3.60;;
8654;SDS011;13500;52.514;13.462;2023-12-20T03:48:10;9.00;;;3.73;;
8654;SDS011;13500;52.514;13.462;2023-12-20T03:50:40;6.77;;;3.27;;
8654;SDS011;13500;52.514;13.462;2023-12-20T03:53:09;9.13;;;3.30;;
8654;SDS011;13500;52.514;13.462;2023-12-20T03:55:37;9.93;;;3.60;;
8654;SDS011;13500;52.514;13.462;2023-12-20T03:58:05;12.10;;;3.40;;
8654;SDS011;13500;52.514;13.462;2023-12-20T04:00:34;11.07;;;3.40;;
8654;SDS011;13500;52.514;13.462;2023-12-20T04:03:04;11.70;;;3.20;;
8654;SDS011;13500;52.514;13.462;2023-12-20T04:05:33;9.93;;;2.60;;
8654;SDS011;13500;52.514;13.462;2023-12-20T04:08:01;8.37;;;2.93;;
8654;SDS011;13500;52.514;13.462;2023-12-20T04:10:31;6.87;;;2.50;;
8654;SDS011;13500;52.514;13.462;2023-12-20T04:12:59;13.50;;;2.73;;
8654;SDS011;13500;52.514;13.462;2023-12-20T04:15:27;11.20;;;2.87;;
8654;SDS011;13500;52.514;13.462;2023-12-20T04:17:56;12.30;;;3.00;;
8654;SDS011;13500;52.514;13.462;2023-12-20T04:20:26;9.63;;;2.80;;
8654;SDS011;13500;52.514;13.462;2023-12-20T04:22:56;10.20;;;2.70;;
8654;SDS011;13500;52.514;13.462;2023-12-20T04:25:27;10.13;;;3.27;;
8654;SDS011;13500;52.514;13.462;2023-12-20T04:27:55;10.97;;;2.97;;
8654;SDS011;13500;52.514;13.462;2023-12-20T04:30:26;10.83;;;2.97;;
8654;SDS011;13500;52.514;13.462;2023-12-20T04:32:57;9.37;;;2.73;;
8654;SDS011;13500;52.514;13.462;2023-12-20T04:35:27;14.10;;;3.23;;
8654;SDS011;13500;52.514;13.462;2023-12-20T04:37:57;10.00;;;2.57;;
8654;SDS011;13500;52.514;13.462;2023-12-20T04:40:26;10.60;;;2.83;;
8654;SDS011;13500;52.514;13.462;2023-12-20T04:42:54;7.73;;;2.40;;
8654;SDS011;13500;52.514;13.462;2023-12-20T04:45:24;10.97;;;2.47;;
8654;SDS011;13500;52.514;13.462;2023-12-20T04:47:53;9.90;;;2.60;;
8654;SDS011;13500;52.514;13.462;2023-12-20T04:50:22;11.77;;;2.30;;
8654;SDS011;13500;52.514;13.462;2023-12-20T04:52:52;10.13;;;2.80;;
8654;SDS011;13500;52.514;13.462;2023-12-20T04:55:21;8.47;;;3.10;;
8654;SDS011;13500;52.514;13.462;2023-12-20T04:57:51;8.23;;;2.67;;
8654;SDS011;13500;52.514;13.462;2023-12-20T05:00:19;9.03;;;2.60;;
8654;SDS011;13500;52.514;13.462;2023-12-20T05:02:48;9.97;;;2.23;;
8654;SDS011;13500;52.514;13.462;2023-12-20T05:05:18;9.77;;;2.70;;
8654;SDS011;13500;52.514;13.462;2023-12-20T05:07:47;11.50;;;2.70;;
8654;SDS011;13500;52.514;13.462;2023-12-20T05:10:18;10.67;;;2.70;;
8654;SDS011;13500;52.514;13.462;2023-12-20T05:12:47;11.83;;;3.20;;
8654;SDS011;13500;52.514;13.462;2023-12-20T05:15:16;9.47;;;2.67;;
8654;SDS011;13500;52.514;13.462;2023-12-20T05:17:44;5.77;;;2.30;;
8654;SDS011;13500;52.514;13.462;2023-12-20T05:20:14;12.13;;;2.97;;
8654;SDS011;13500;52.514;13.462;2023-12-20T05:22:43;11.17;;;3.17;;
8654;SDS011;13500;52.514;13.462;2023-12-20T05:25:14;16.27;;;2.97;;
8654;SDS011;13500;52.514;13.462;2023-12-20T05:27:44;9.90;;;3.10;;
8654;SDS011;13500;52.514;13.462;2023-12-20T05:30:16;10.50;;;2.77;;
8654;SDS011;13500;52.514;13.462;2023-12-20T05:32:45;9.57;;;2.10;;
8654;SDS011;13500;52.514;13.462;2023-12-20T05:35:14;7.60;;;2.87;;
8654;SDS011;13500;52.514;13.462;2023-12-20T05:37:44;7.80;;;2.33;;
8654;SDS011;13500;52.514;13.462;2023-12-20T05:40:13;9.20;;;2.93;;
8654;SDS011;13500;52.514;13.462;2023-12-20T05:42:43;7.13;;;2.50;;
8654;SDS011;13500;52.514;13.462;2023-12-20T05:45:12;11.20;;;2.40;;
8654;SDS011;13500;52.514;13.462;2023-12-20T05:47:42;15.20;;;3.00;;
8654;SDS011;13500;52.514;13.462;2023-12-20T05:50:14;10.80;;;2.63;;
8654;SDS011;13500;52.514;13.462;2023-12-20T05:52:42;8.83;;;2.60;;
8654;SDS011;13500;52.514;13.462;2023-12-20T05:55:12;11.40;;;2.50;;
8654;SDS011;13500;52.514;13.462;2023-12-20T05:57:41;12.30;;;2.90;;
8654;SDS011;13500;52.514;13.462;2023-12-20T06:00:13;9.80;;;2.50;;
8654;SDS011;13500;52.514;13.462;2023-12-20T06:02:44;11.80;;;2.30;;
8654;SDS011;13500;52.514;13.462;2023-12-20T06:05:14;7.90;;;2.30;;
8654;SDS011;13500;52.514;13.462;2023-12-20T06:07:47;10.80;;;3.40;;
8654;SDS011;13500;52.514;13.462;2023-12-20T06:10:17;8.03;;;2.37;;
8654;SDS011;13500;52.514;13.462;2023-12-20T06:12:46;13.07;;;2.57;;
8654;SDS011;13500;52.514;13.462;2023-12-20T06:15:18;10.53;;;2.10;;
8654;SDS011;13500;52.514;13.462;2023-12-20T06:17:47;12.83;;;2.50;;
8654;SDS011;13500;52.514;13.462;2023-12-20T06:20:17;12.10;;;3.07;;
8654;SDS011;13500;52.514;13.462;2023-12-20T06:22:45;11.43;;;3.10;;
8654;SDS011;13500;52.514;13.462;2023-12-20T06:25:13;10.40;;;2.57;;
8654;SDS011;13500;52.514;13.462;2023-12-20T06:27:42;14.87;;;2.50;;
8654;SDS011;13500;52.514;13.462;2023-12-20T06:30:12;8.40;;;2.60;;
8654;SDS011;13500;52.514;13.462;2023-12-20T06:32:43;11.23;;;2.67;;
8654;SDS011;13500;52.514;13.462;2023-12-20T06:35:13;9.60;;;2.07;;
8654;SDS011;13500;52.514;13.462;2023-12-20T06:37:43;11.93;;;2.30;;
8654;SDS011;13500;52.514;13.462;2023-12-20T06:40:12;9.40;;;2.37;;
8654;SDS011;13500;52.514;13.462;2023-12-20T06:42:44;10.53;;;2.40;;
8654;SDS011;13500;52.514;13.462;2023-12-20T06:45:27;9.23;;;2.23;;
8654;SDS011;13500;52.514;13.462;2023-12-20T06:47:58;13.27;;;3.03;;
8654;SDS011;13500;52.514;13.462;2023-12-20T06:50:28;8.77;;;2.50;;
8654;SDS011;13500;52.514;13.462;2023-12-20T06:53:00;9.67;;;2.43;;
8654;SDS011;13500;52.514;13.462;2023-12-20T06:55:35;12.27;;;2.37;;
8654;SDS011;13500;52.514;13.462;2023-12-20T06:58:06;9.57;;;2.23;;
8654;SDS011;13500;52.514;13.462;2023-12-20T07:00:35;9.40;;;2.23;;
8654;SDS011;13500;52.514;13.462;2023-12-20T07:03:08;6.03;;;2.43;;
8654;SDS011;13500;52.514;13.462;2023-12-20T07:05:37;7.33;;;2.20;;
8654;SDS011;13500;52.514;13.462;2023-12-20T07:08:06;8.23;;;2.87;;
8654;SDS011;13500;52.514;13.462;2023-12-20T07:10:35;4.90;;;2.47;;
8654;SDS011;13500;52.514;13.462;2023-12-20T07:13:04;10.40;;;2.87;;
8654;SDS011;13500;52.514;13.462;2023-12-20T07:15:34;7.67;;;3.03;;
8654;SDS011;13500;52.514;13.462;2023-12-20T07:18:06;6.93;;;2.43;;
8654;SDS011;13500;52.514;13.462;2023-12-20T07:20:39;11.17;;;2.67;;
8654;SDS011;13500;52.514;13.462;2023-12-20T07:23:09;10.80;;;2.90;;
8654;SDS011;13500;52.514;13.462;2023-12-20T07:25:38;11.17;;;2.77;;
8654;SDS011;13500;52.514;13.462;2023-12-20T07:28:06;12.20;;;3.10;;
8654;SDS011;13500;52.514;13.462;2023-12-20T07:30:35;11.90;;;2.67;;
8654;SDS011;13500;52.514;13.462;2023-12-20T07:33:03;7.90;;;2.60;;
8654;SDS011;13500;52.514;13.462;2023-12-20T07:35:34;16.53;;;2.80;;
8654;SDS011;13500;52.514;13.462;2023-12-20T07:38:08;7.40;;;2.50;;
8654;SDS011;13500;52.514;13.462;2023-12-20T07:40:39;8.93;;;2.33;;
8654;SDS011;13500;52.514;13.462;2023-12-20T07:43:09;6.63;;;2.50;;
8654;SDS011;13500;52.514;13.462;2023-12-20T07:45:37;10.97;;;2.47;;
8654;SDS011;13500;52.514;13.462;2023-12-20T07:48:06;10.90;;;2.90;;
8654;SDS011;13500;52.514;13.462;2023-12-20T07:50:38;14.17;;;2.90;;
8654;SDS011;13500;52.514;13.462;2023-12-20T07:53:10;11.47;;;2.90;;
8654;SDS011;13500;52.514;13.462;2023-12-20T07:55:38;5.63;;;2.80;;
8654;SDS011;13500;52.514;13.462;2023-12-20T07:58:10;10.90;;;2.47;;
8654;SDS011;13500;52.514;13.462;2023-12-20T08:00:39;6.57;;;2.10;;
8654;SDS011;13500;52.514;13.462;2023-12-20T08:03:08;7.83;;;2.20;;
8654;SDS011;13500;52.514;13.462;2023-12-20T08:05:36;8.53;;;2.47;;
8654;SDS011;13500;52.514;13.462;2023-12-20T08:08:07;7.80;;;2.30;;
8654;SDS011;13500;52.514;13.462;2023-12-20T08:10:37;10.73;;;2.77;;
8654;SDS011;13500;52.514;13.462;2023-12-20T08:13:05;14.47;;;2.87;;
8654;SDS011;13500;52.514;13.462;2023-12-20T08:15:35;8.23;;;2.47;;
8654;SDS011;13500;52.514;13.462;2023-12-20T08:18:04;9.03;;;2.57;;
8654;SDS011;13500;52.514;13.462;2023-12-20T08:20:33;10.20;;;2.43;;
8654;SDS011;13500;52.514;13.462;2023-12-20T08:23:08;8.37;;;2.53;;
8654;SDS011;13500;52.514;13.462;2023-12-20T08:25:38;13.83;;;3.03;;
8654;SDS011;13500;52.514;13.462;2023-12-20T08:28:07;5.83;;;2.47;;
8654;SDS011;13500;52.514;13.462;2023-12-20T08:30:35;9.20;;;2.40;;
8654;SDS011;13500;52.514;13.462;2023-12-20T08:33:05;15.87;;;3.07;;
8654;SDS011;13500;52.514;13.462;2023-12-20T08:35:39;9.63;;;2.80;;
8654;SDS011;13500;52.514;13.462;2023-12-20T08:38:07;9.50;;;2.63;;
8654;SDS011;13500;52.514;13.462;2023-12-20T08:40:38;6.87;;;2.23;;
8654;SDS011;13500;52.514;13.462;2023-12-20T08:43:08;6.73;;;2.07;;
8654;SDS011;13500;52.514;13.462;2023-12-20T08:45:38;8.37;;;2.40;;
8654;SDS011;13500;52.514;13.462;2023-12-20T08:48:08;7.73;;;2.40;;
8654;SDS011;13500;52.514;13.462;2023-12-20T08:50:37;7.47;;;2.70;;
8654;SDS011;13500;52.514;13.462;2023-12-20T08:53:06;9.57;;;2.53;;
8654;SDS011;13500;52.514;13.462;2023-12-20T08:55:35;7.47;;;2.20;;
8654;SDS011;13500;52.514;13.462;2023-12-20T08:58:07;9.37;;;2.10;;
8654;SDS011;13500;52.514;13.462;2023-12-20T09:00:38;6.87;;;2.00;;
8654;SDS011;13500;52.514;13.462;2023-12-20T09:03:09;13.00;;;2.63;;
8654;SDS011;13500;52.514;13.462;2023-12-20T09:05:38;10.97;;;2.30;;
8654;SDS011;13500;52.514;13.462;2023-12-20T09:08:06;7.00;;;2.30;;
8654;SDS011;13500;52.514;13.462;2023-12-20T09:10:37;7.70;;;2.07;;
8654;SDS011;13500;52.514;13.462;2023-12-20T09:13:07;7.03;;;2.43;;
8654;SDS011;13500;52.514;13.462;2023-12-20T09:15:38;10.50;;;2.80;;
8654;SDS011;13500;52.514;13.462;2023-12-20T09:18:06;7.87;;;2.37;;
8654;SDS011;13500;52.514;13.462;2023-12-20T09:20:35;12.50;;;2.63;;
8654;SDS011;13500;52.514;13.462;2023-12-20T09:23:09;6.17;;;2.90;;
8654;SDS011;13500;52.514;13.462;2023-12-20T09:25:39;8.80;;;3.13;;
8654;SDS011;13500;52.514;13.462;2023-12-20T09:28:10;6.37;;;2.37;;
8654;SDS011;13500;52.514;13.462;2023-12-20T09:30:39;8.27;;;2.17;;
8654;SDS011;13500;52.514;13.462;2023-12-20T09:33:08;12.47;;;2.90;;
8654;SDS011;13500;52.514;13.462;2023-12-20T09:35:36;10.50;;;2.40;;
8654;SDS011;13500;52.514;13.462;2023-12-20T09:38:05;8.90;;;2.90;;
8654;SDS011;13500;52.514;13.462;2023-12-20T09:40:34;8.30;;;2.33;;
8654;SDS011;13500;52.514;13.462;2023-12-20T09:43:04;10.93;;;2.70;;
8654;SDS011;13500;52.514;13.462;2023-12-20T09:45:36;11.50;;;2.83;;
8654;SDS011;13500;52.514;13.462;2023-12-20T09:48:05;10.17;;;2.43;;
8654;SDS011;13500;52.514;13.462;2023-12-20T09:50:34;10.97;;;3.23;;
8654;SDS011;13500;52.514;13.462;2023-12-20T09:53:02;9.50;;;2.73;;
8654;SDS011;13500;52.514;13.462;2023-12-20T09:55:36;8.57;;;2.87;;
8654;SDS011;13500;52.514;13.462;2023-12-20T09:58:04;11.67;;;2.97;;
8654;SDS011;13500;52.514;13.462;2023-12-20T10:00:36;6.63;;;2.17;;
8654;SDS011;13500;52.514;13.462;2023-12-20T10:03:06;8.37;;;2.70;;
8654;SDS011;13500;52.514;13.462;2023-12-20T10:05:36;8.53;;;2.47;;
8654;SDS011;13500;52.514;13.462;2023-12-20T10:08:08;6.77;;;2.33;;
8654;SDS011;13500;52.514;13.462;2023-12-20T10:10:37;9.57;;;2.50;;
8654;SDS011;13500;52.514;13.462;2023-12-20T10:13:14;11.53;;;3.43;;
8654;SDS011;13500;52.514;13.462;2023-12-20T10:15:49;7.93;;;2.40;;
8654;SDS011;13500;52.514;13.462;2023-12-20T10:18:18;11.00;;;2.77;;
8654;SDS011;13500;52.514;13.462;2023-12-20T10:21:04;6.03;;;2.10;;
8654;SDS011;13500;52.514;13.462;2023-12-20T10:23:34;5.13;;;2.03;;
8654;SDS011;13500;52.514;13.462;2023-12-20T10:26:02;7.87;;;2.43;;
8654;SDS011;13500;52.514;13.462;2023-12-20T10:28:33;11.30;;;2.93;;
8654;SDS011;13500;52.514;13.462;2023-12-20T10:31:04;7.93;;;2.87;;
8654;SDS011;13500;52.514;13.462;2023-12-20T10:33:34;11.43;;;3.10;;
8654;SDS011;13500;52.514;13.462;2023-12-20T10:36:03;6.80;;;2.40;;
8654;SDS011;13500;52.514;13.462;2023-12-20T10:38:32;10.73;;;2.90;;
8654;SDS011;13500;52.514;13.462;2023-12-20T10:41:00;9.83;;;2.97;;
8654;SDS011;13500;52.514;13.462;2023-12-20T10:43:29;11.57;;;3.40;;
8654;SDS011;13500;52.514;13.462;2023-12-20T10:45:59;15.03;;;3.10;;
8654;SDS011;13500;52.514;13.462;2023-12-20T10:48:29;9.37;;;2.50;;
8654;SDS011;13500;52.514;13.462;2023-12-20T10:51:01;6.83;;;2.57;;
8654;SDS011;13500;52.514;13.462;2023-12-20T10:53:33;9.53;;;2.70;;
8654;SDS011;13500;52.514;13.462;2023-12-20T10:56:03;8.77;;;2.70;;
8654;SDS011;13500;52.514;13.462;2023-12-20T10:58:33;13.03;;;2.50;;
8654;SDS011;13500;52.514;13.462;2023-12-20T11:01:03;6.97;;;2.57;;
8654;SDS011;13500;52.514;13.462;2023-12-20T11:03:34;8.27;;;2.80;;
8654;SDS011;13500;52.514;13.462;2023-12-20T11:06:05;7.47;;;2.53;;
8654;SDS011;13500;52.514;13.462;2023-12-20T11:08:38;8.53;;;2.43;;
8654;SDS011;13500;52.514;13.462;2023-12-20T11:11:12;8.70;;;2.70;;
8654;SDS011;13500;52.514;13.462;2023-12-20T11:13:48;10.20;;;2.87;;
8654;SDS011;13500;52.514;13.462;2023-12-20T11:16:22;9.13;;;2.57;;
8654;SDS011;13500;52.514;13.462;2023-12-20T11:18:56;7.67;;;2.57;;
8654;SDS011;13500;52.514;13.462;2023-12-20T11:21:25;9.20;;;2.63;;
8654;SDS011;13500;52.514;13.462;2023-12-20T11:23:57;8.40;;;2.70;;
8654;SDS011;13500;52.514;13.462;2023-12-20T11:26:29;7.83;;;3.07;;
8654;SDS011;13500;52.514;13.462;2023-12-20T11:32:00;9.43;;;2.80;;
8654;SDS011;13500;52.514;13.462;2023-12-20T11:34:32;13.00;;;2.80;;
8654;SDS011;13500;52.514;13.462;2023-12-20T11:37:04;8.10;;;2.80;;
8654;SDS011;13500;52.514;13.462;2023-12-20T11:39:32;9.00;;;2.60;;
8654;SDS011;13500;52.514;13.462;2023-12-20T11:42:06;12.40;;;3.80;;
8654;SDS011;13500;52.514;13.462;2023-12-20T11:44:36;10.00;;;3.30;;
8654;SDS011;13500;52.514;13.462;2023-12-20T11:47:09;10.17;;;3.23;;
8654;SDS011;13500;52.514;13.462;2023-12-20T11:49:43;9.23;;;3.00;;
8654;SDS011;13500;52.514;13.462;2023-12-20T11:52:12;8.47;;;3.00;;
8654;SDS011;13500;52.514;13.462;2023-12-20T11:54:41;14.67;;;3.63;;
8654;SDS011;13500;52.514;13.462;2023-12-20T11:57:10;9.37;;;3.10;;
8654;SDS011;13500;52.514;13.462;2023-12-20T11:59:41;12.87;;;3.27;;
8654;SDS011;13500;52.514;13.462;2023-12-20T12:02:11;13.63;;;3.47;;
8654;SDS011;13500;52.514;13.462;2023-12-20T12:04:43;11.07;;;3.17;;
8654;SDS011;13500;52.514;13.462;2023-12-20T12:07:12;7.40;;;2.57;;
8654;SDS011;13500;52.514;13.462;2023-12-20T12:09:40;12.20;;;3.67;;
8654;SDS011;13500;52.514;13.462;2023-12-20T12:12:09;9.37;;;3.10;;
8654;SDS011;13500;52.514;13.462;2023-12-20T12:14:40;14.20;;;3.00;;
8654;SDS011;13500;52.514;13.462;2023-12-20T12:17:11;8.73;;;2.50;;
8654;SDS011;13500;52.514;13.462;2023-12-20T12:19:43;8.43;;;2.87;;
8654;SDS011;13500;52.514;13.462;2023-12-20T12:22:12;10.27;;;2.40;;
8654;SDS011;13500;52.514;13.462;2023-12-20T12:24:43;10.30;;;3.20;;
8654;SDS011;13500;52.514;13.462;2023-12-20T12:27:12;7.30;;;2.50;;
8654;SDS011;13500;52.514;13.462;2023-12-20T12:29:59;9.13;;;3.17;;
8654;SDS011;13500;52.514;13.462;2023-12-20T12:32:29;9.33;;;2.73;;
8654;SDS011;13500;52.514;13.462;2023-12-20T12:35:02;7.63;;;2.67;;
8654;SDS011;13500;52.514;13.462;2023-12-20T12:37:31;10.93;;;2.60;;
8654;SDS011;13500;52.514;13.462;2023-12-20T12:40:03;10.63;;;3.30;;
8654;SDS011;13500;52.514;13.462;2023-12-20T12:42:33;7.70;;;2.90;;
8654;SDS011;13500;52.514;13.462;2023-12-20T12:45:09;7.03;;;3.20;;
8654;SDS011;13500;52.514;13.462;2023-12-20T12:47:41;10.67;;;2.90;;
8654;SDS011;13500;52.514;13.462;2023-12-20T12:50:12;10.73;;;3.70;;
8654;SDS011;13500;52.514;13.462;2023-12-20T12:52:41;8.17;;;3.40;;
8654;SDS011;13500;52.514;13.462;2023-12-20T12:55:10;8.77;;;3.20;;
8654;SDS011;13500;52.514;13.462;2023-12-20T12:57:38;7.57;;;2.63;;
8654;SDS011;13500;52.514;13.462;2023-12-20T13:00:09;9.03;;;3.30;;
8654;SDS011;13500;52.514;13.462;2023-12-20T13:02:40;6.00;;;2.47;;
8654;SDS011;13500;52.514;13.462;2023-12-20T13:05:11;8.33;;;2.77;;
8654;SDS011;13500;52.514;13.462;2023-12-20T13:07:43;11.10;;;3.30;;
8654;SDS011;13500;52.514;13.462;2023-12-20T13:10:13;6.07;;;3.20;;
8654;SDS011;13500;52.514;13.462;2023-12-20T13:12:43;6.67;;;3.77;;
8654;SDS011;13500;52.514;13.462;2023-12-20T13:15:13;6.67;;;2.67;;
8654;SDS011;13500;52.514;13.462;2023-12-20T13:17:41;12.67;;;4.00;;
8654;SDS011;13500;52.514;13.462;2023-12-20T13:20:10;11.07;;;4.40;;
8654;SDS011;13500;52.514;13.462;2023-12-20T13:22:42;14.30;;;4.77;;
8654;SDS011;13500;52.514;13.462;2023-12-20T13:25:11;10.73;;;3.27;;
8654;SDS011;13500;52.514;13.462;2023-12-20T13:27:42;6.70;;;2.37;;
8654;SDS011;13500;52.514;13.462;2023-12-20T13:30:12;6.67;;;2.23;;
8654;SDS011;13500;52.514;13.462;2023-12-20T13:32:42;5.77;;;1.60;;
8654;SDS011;13500;52.514;13.462;2023-12-20T13:35:11;5.37;;;1.80;;
8654;SDS011;13500;52.514;13.462;2023-12-20T13:37:39;3.43;;;1.83;;
8654;SDS011;13500;52.514;13.462;2023-12-20T13:40:11;1.73;;;1.23;;
8654;SDS011;13500;52.514;13.462;2023-12-20T13:42:39;4.23;;;1.50;;
8654;SDS011;13500;52.514;13.462;2023-12-20T13:45:09;5.43;;;1.70;;
8654;SDS011;13500;52.514;13.462;2023-12-20T13:47:40;2.17;;;1.40;;
8654;SDS011;13500;52.514;13.462;2023-12-20T13:50:12;4.53;;;1.40;;
8654;SDS011;13500;52.514;13.462;2023-12-20T13:52:41;3.17;;;1.87;;
8654;SDS011;13500;52.514;13.462;2023-12-20T13:55:10;6.47;;;1.83;;
8654;SDS011;13500;52.514;13.462;2023-12-20T13:57:41;3.80;;;1.43;;
8654;SDS011;13500;52.514;13.462;2023-12-20T14:00:21;4.33;;;1.90;;
8654;SDS011;13500;52.514;13.462;2023-12-20T14:02:51;3.13;;;1.60;;
8654;SDS011;13500;52.514;13.462;2023-12-20T14:05:20;6.53;;;2.10;;
8654;SDS011;13500;52.514;13.462;2023-12-20T14:07:54;3.60;;;1.97;;
8654;SDS011;13500;52.514;13.462;2023-12-20T14:10:28;2.33;;;1.30;;
8654;SDS011;13500;52.514;13.462;2023-12-20T14:12:58;3.10;;;1.80;;
8654;SDS011;13500;52.514;13.462;2023-12-20T14:15:26;3.37;;;1.87;;
8654;SDS011;13500;52.514;13.462;2023-12-20T14:17:57;3.33;;;1.80;;
8654;SDS011;13500;52.514;13.462;2023-12-20T14:20:28;2.77;;;1.33;;
8654;SDS011;13500;52.514;13.462;2023-12-20T14:22:56;2.47;;;1.20;;
8654;SDS011;13500;52.514;13.462;2023-12-20T14:25:25;1.83;;;1.30;;
8654;SDS011;13500;52.514;13.462;2023-12-20T14:27:58;2.87;;;1.40;;
8654;SDS011;13500;52.514;13.462;2023-12-20T14:30:27;3.17;;;1.20;;
8654;SDS011;13500;52.514;13.462;2023-12-20T14:32:56;1.73;;;1.20;;
8654;SDS011;13500;52.514;13.462;2023-12-20T14:35:27;3.93;;;1.17;;
8654;SDS011;13500;52.514;13.462;2023-12-20T14:37:58;3.60;;;1.50;;
8654;SDS011;13500;52.514;13.462;2023-12-20T14:40:27;4.93;;;1.37;;
8654;SDS011;13500;52.514;13.462;2023-12-20T14:42:55;1.83;;;1.10;;
8654;SDS011;13500;52.514;13.462;2023-12-20T14:45:25;3.17;;;0.93;;
8654;SDS011;13500;52.514;13.462;2023-12-20T14:47:59;3.57;;;1.40;;
8654;SDS011;13500;52.514;13.462;2023-12-20T14:50:30;3.27;;;1.30;;
8654;SDS011;13500;52.514;13.462;2023-12-20T14:52:58;3.37;;;1.30;;
8654;SDS011;13500;52.514;13.462;2023-12-20T14:55:26;3.80;;;1.23;;
8654;SDS011;13500;52.514;13.462;2023-12-20T14:57:57;2.13;;;1.00;;
8654;SDS011;13500;52.514;13.462;2023-12-20T15:00:27;2.67;;;0.90;;
8654;SDS011;13500;52.514;13.462;2023-12-20T15:02:56;2.90;;;1.20;;